Terminal Aerodrome Forecast
Issued by NWS

Home | Current Version | Previous Version | Text Only | Print | Product List | Glossary On
Versions: 1 2 3 4 5 6 7 8 9 10 11 12 13 14 15 16 17 18 19 20 21 22 23 24 25 26 27
000
FTUS44 KLZK 240124 AAA
TAFLIT
TAF AMD
KLIT 240124Z 2401/2424 07006KT P6SM SCT005 OVC020
      TEMPO 2401/2404 4SM BR OVC005
     FM240400 06005KT 5SM BR BKN005 OVC030
     FM240600 09005KT 4SM BR VCSH BKN005 OVC025
     FM240900 09005KT 3SM -RA BR OVC005
      TEMPO 2409/2412 1SM -DZ BR OVC002=

USA.gov is the U.S. government's official web portal to all federal, state and local government web resources and services.